Tower, Minnesota
Current Conditions -  °F | °C
As of 9:55 PM on Friday 24 Oct 2014 (Local Time) from KCQM Reporting Station
Clear Clear  
Wind Chill: 61°   Ceiling: Unl
Heat Index: 61°   Visibility: 10mi
Dew Point: 34°   Wind: 18mph
Humidity: 36%   Direction: 270°W
Pressure: 29.74"   Gusts: 25mph
Location:  47.81°N, 92.27°W
Report Text: KCQM 250255Z AUTO 27016G22KT 10SM CLR 16/01 A2974 RMK AO2
Loading
Personal Weather Stations






























Interactive Weather Map
Tropical Storm Tracking
New forecast layout! Learn more

10-Day Weather Forecast

Advertisements
Track Severe Weather on mobile